Time;durP1;ratioP1;P1;durP2;ratioP2;P2;SDS_P1;SDS_P2;PMS_P1;PMS_P2;Temp;Humidity;BMP_temperature;BMP_pressure;BME280_temperature;BME280_humidity;BME280_pressure;Samples;Min_cycle;Max_cycle;Signal;HPM_P1;HPM_P2
2021/01/27 00:00:25;;;;;;;17.40;8.53;;;1.80;99.90;;;;;;4972426;28;20043;-75
2021/01/27 00:02:52;;;;;;;15.23;7.97;;;1.90;99.90;;;;;;4980648;28;20046;-76
2021/01/27 00:05:22;;;;;;;17.70;9.57;;;1.90;99.90;;;;;;4982326;28;20054;-77
2021/01/27 00:07:48;;;;;;;16.93;8.47;;;1.80;99.90;;;;;;4981833;28;20601;-76
2021/01/27 00:10:16;;;;;;;17.07;8.53;;;1.80;99.90;;;;;;4981437;28;20042;-77
2021/01/27 00:12:43;;;;;;;13.97;7.87;;;1.70;99.90;;;;;;4980353;28;20051;-77
2021/01/27 00:15:15;;;;;;;17.53;8.30;;;1.70;99.90;;;;;;4978706;28;20054;-77
2021/01/27 00:17:42;;;;;;;18.30;8.73;;;1.70;99.90;;;;;;4982832;28;20050;-75
2021/01/27 00:20:10;;;;;;;22.93;9.50;;;1.50;99.90;;;;;;4983820;28;20555;-75
2021/01/27 00:22:41;;;;;;;21.13;8.40;;;1.60;99.90;;;;;;4981787;28;20427;-77
2021/01/27 00:25:10;;;;;;;17.90;8.33;;;1.40;99.90;;;;;;4984534;28;20046;-76
2021/01/27 00:27:39;;;;;;;17.70;8.37;;;1.40;99.90;;;;;;4986971;28;20039;-76
2021/01/27 00:30:10;;;;;;;17.67;7.47;;;1.40;99.90;;;;;;4981698;28;20051;-76
2021/01/27 00:32:36;;;;;;;21.93;8.53;;;1.40;99.90;;;;;;4981862;28;20129;-76
2021/01/27 00:35:04;;;;;;;13.03;8.03;;;1.50;99.90;;;;;;4979777;28;20054;-76
2021/01/27 00:37:31;;;;;;;16.83;8.23;;;1.50;99.90;;;;;;4984961;28;20093;-76
2021/01/27 00:39:58;;;;;;;14.97;8.17;;;1.60;99.90;;;;;;4986012;28;20073;-76
2021/01/27 00:42:25;;;;;;;16.50;8.50;;;1.50;99.90;;;;;;4985332;28;20046;-77
2021/01/27 00:44:52;;;;;;;15.60;7.63;;;1.60;99.90;;;;;;4986806;28;20145;-75
2021/01/27 00:47:21;;;;;;;16.50;8.87;;;1.70;99.90;;;;;;4986320;28;20057;-75
2021/01/27 00:49:48;;;;;;;13.50;7.33;;;1.70;99.90;;;;;;4984762;28;20157;-76
2021/01/27 00:52:14;;;;;;;13.67;7.87;;;1.70;99.90;;;;;;4978309;28;20050;-76
2021/01/27 00:54:41;;;;;;;14.47;7.73;;;1.60;99.90;;;;;;4975993;28;20046;-75
2021/01/27 00:57:08;;;;;;;15.60;8.17;;;1.70;99.90;;;;;;4978711;28;20050;-76
2021/01/27 00:59:35;;;;;;;14.47;7.37;;;2.10;99.90;;;;;;4978207;28;20082;-75
2021/01/27 01:02:01;;;;;;;17.07;8.77;;;1.70;99.90;;;;;;4979471;28;20046;-75
2021/01/27 01:04:28;;;;;;;16.93;8.50;;;1.60;99.90;;;;;;4979936;28;20047;-75
2021/01/27 01:06:55;;;;;;;17.00;8.40;;;1.60;99.90;;;;;;4982494;28;20050;-75
2021/01/27 01:09:21;;;;;;;16.67;9.07;;;1.60;99.90;;;;;;4986069;28;20061;-75
2021/01/27 01:11:48;;;;;;;15.90;8.10;;;1.60;99.90;;;;;;4986480;28;20051;-76
2021/01/27 01:14:15;;;;;;;15.53;8.63;;;1.70;99.90;;;;;;4984924;28;20050;-76
2021/01/27 01:16:43;;;;;;;16.80;9.07;;;1.70;99.90;;;;;;4986507;28;20054;-75
2021/01/27 01:19:10;;;;;;;18.67;8.97;;;1.70;99.90;;;;;;4986617;28;20046;-75
2021/01/27 01:21:36;;;;;;;20.30;8.87;;;1.70;99.90;;;;;;4986165;28;20057;-75
2021/01/27 01:24:04;;;;;;;15.20;8.10;;;1.60;99.90;;;;;;4984529;28;20086;-75
2021/01/27 01:26:30;;;;;;;14.93;9.00;;;1.60;99.90;;;;;;4986661;28;20128;-76
2021/01/27 01:28:57;;;;;;;14.03;7.93;;;1.70;99.90;;;;;;4985834;28;20054;-75
2021/01/27 01:31:24;;;;;;;13.17;7.83;;;1.60;99.90;;;;;;4986055;28;20046;-75
2021/01/27 01:33:50;;;;;;;14.57;8.57;;;1.80;99.90;;;;;;4985170;28;20496;-75
2021/01/27 01:36:17;;;;;;;16.10;7.87;;;1.80;99.90;;;;;;4984839;28;20050;-75
2021/01/27 01:38:45;;;;;;;18.57;8.87;;;1.90;99.90;;;;;;4985987;28;20047;-75
2021/01/27 01:41:12;;;;;;;17.70;8.20;;;1.80;99.90;;;;;;4986406;28;20136;-75
2021/01/27 01:43:40;;;;;;;20.50;8.30;;;1.90;99.90;;;;;;4985018;28;20093;-75
2021/01/27 01:46:12;;;;;;;14.93;8.57;;;1.70;99.90;;;;;;4985771;28;20046;-75
2021/01/27 01:48:43;;;;;;;16.87;7.80;;;1.80;99.90;;;;;;4985400;28;20053;-75
2021/01/27 01:51:17;;;;;;;15.47;7.67;;;1.70;99.90;;;;;;4983073;28;20046;-75
2021/01/27 01:53:47;;;;;;;15.97;8.73;;;1.60;99.90;;;;;;4984303;28;20130;-76
2021/01/27 01:56:16;;;;;;;19.50;9.87;;;1.60;99.90;;;;;;4985861;28;20058;-76
2021/01/27 01:58:43;;;;;;;22.00;9.53;;;1.50;99.90;;;;;;4985704;28;20509;-75
2021/01/27 02:01:10;;;;;;;16.07;8.83;;;1.40;99.90;;;;;;4980215;28;20034;-75
2021/01/27 02:03:38;;;;;;;15.37;7.73;;;1.30;99.90;;;;;;4982534;28;20061;-75
2021/01/27 02:06:10;;;;;;;16.70;8.43;;;1.30;99.90;;;;;;4985007;28;20116;-75
2021/01/27 02:08:39;;;;;;;18.07;8.80;;;1.30;99.90;;;;;;4986317;28;20046;-75
2021/01/27 02:11:05;;;;;;;21.53;9.23;;;1.30;99.90;;;;;;4986622;28;20520;-75
2021/01/27 02:14:09;;;;;;;18.23;9.67;;;1.40;99.90;;;;;;4986104;28;20455;-75
2021/01/27 02:16:42;;;;;;;18.63;8.87;;;1.20;99.90;;;;;;4985193;28;20058;-75
2021/01/27 02:19:56;;;;;;;17.57;8.80;;;1.20;99.90;;;;;;4987660;28;20050;-75
2021/01/27 02:23:16;;;;;;;19.53;9.67;;;1.20;99.90;;;;;;4985537;28;20046;-75
2021/01/27 02:26:12;;;;;;;20.80;10.23;;;1.30;99.90;;;;;;4898851;29;20086;-75
2021/01/27 02:28:56;;;;;;;18.53;9.43;;;1.30;99.90;;;;;;4979858;28;20054;-75
2021/01/27 02:31:32;;;;;;;20.63;9.70;;;1.30;99.90;;;;;;4979154;28;20042;-75
2021/01/27 02:34:28;;;;;;;20.85;9.98;;;1.30;99.90;;;;;;4985245;28;20054;-75
2021/01/27 02:37:00;;;;;;;19.97;9.03;;;1.30;99.90;;;;;;4973920;28;20108;-75
2021/01/27 02:39:31;;;;;;;19.43;9.90;;;1.40;99.90;;;;;;4979009;28;20056;-75
2021/01/27 02:42:03;;;;;;;17.03;9.60;;;1.40;99.90;;;;;;4986706;28;20054;-75
2021/01/27 02:44:36;;;;;;;19.03;10.30;;;1.40;99.90;;;;;;4985824;28;20051;-76
2021/01/27 02:47:12;;;;;;;22.93;10.20;;;1.50;99.90;;;;;;4986562;28;20064;-75
2021/01/27 02:49:45;;;;;;;21.73;10.77;;;1.40;99.90;;;;;;4986528;28;20046;-75
2021/01/27 02:52:16;;;;;;;21.60;9.37;;;1.40;99.90;;;;;;4986337;28;20700;-75
2021/01/27 02:54:49;;;;;;;21.97;11.00;;;1.40;99.90;;;;;;4985905;28;20057;-75
2021/01/27 02:57:21;;;;;;;22.77;10.00;;;1.40;99.90;;;;;;4986722;28;20062;-75
2021/01/27 02:59:54;;;;;;;20.93;11.40;;;1.30;99.90;;;;;;4983935;28;20186;-76
2021/01/27 03:02:25;;;;;;;19.87;10.50;;;1.40;99.90;;;;;;4981193;28;20566;-76
2021/01/27 03:04:59;;;;;;;22.90;11.33;;;1.40;99.90;;;;;;4985777;28;20416;-75
2021/01/27 03:07:29;;;;;;;26.73;11.87;;;1.40;99.90;;;;;;4985853;28;20125;-75
2021/01/27 03:10:00;;;;;;;25.43;12.00;;;1.30;99.90;;;;;;4986441;28;20171;-75
2021/01/27 03:12:26;;;;;;;22.00;11.20;;;1.30;99.90;;;;;;4983568;28;20050;-75
2021/01/27 03:14:53;;;;;;;22.63;11.17;;;1.50;99.90;;;;;;4986150;28;20050;-75
2021/01/27 03:17:22;;;;;;;21.50;11.73;;;1.50;99.90;;;;;;4985880;28;20104;-75
2021/01/27 03:19:56;;;;;;;20.63;10.83;;;1.40;99.90;;;;;;4985716;28;20101;-75
2021/01/27 03:22:29;;;;;;;27.47;11.60;;;1.40;99.90;;;;;;4984169;28;20085;-75
2021/01/27 03:25:03;;;;;;;18.23;9.77;;;1.40;99.90;;;;;;4986103;28;20044;-76
2021/01/27 03:27:35;;;;;;;19.37;10.07;;;1.40;99.90;;;;;;4986247;28;20045;-75
2021/01/27 03:30:06;;;;;;;20.80;10.47;;;1.40;99.90;;;;;;4979338;28;20105;-75
2021/01/27 03:32:41;;;;;;;20.83;9.27;;;1.40;99.90;;;;;;4984990;28;20042;-75
2021/01/27 03:35:12;;;;;;;20.97;9.93;;;1.40;99.90;;;;;;4985066;28;20103;-75
2021/01/27 03:37:45;;;;;;;19.67;9.57;;;1.40;99.90;;;;;;4978375;28;20480;-76
2021/01/27 03:40:15;;;;;;;22.80;10.43;;;1.40;99.90;;;;;;4985844;28;20050;-75
2021/01/27 03:42:47;;;;;;;22.37;10.17;;;1.40;99.90;;;;;;4971739;28;20136;-75
2021/01/27 03:45:16;;;;;;;22.23;9.97;;;1.40;99.90;;;;;;4985641;28;20657;-75
2021/01/27 03:47:52;;;;;;;18.77;10.17;;;1.50;99.90;;;;;;4972879;28;20042;-75
2021/01/27 03:50:23;;;;;;;18.20;9.93;;;1.40;99.90;;;;;;4985481;28;20054;-75
2021/01/27 03:52:54;;;;;;;18.47;10.10;;;1.40;99.90;;;;;;4984623;28;20472;-76
2021/01/27 03:55:27;;;;;;;20.93;10.23;;;1.40;99.90;;;;;;4985712;28;20480;-76
2021/01/27 03:58:02;;;;;;;20.90;9.30;;;1.50;99.90;;;;;;4985196;28;20054;-75
2021/01/27 04:00:30;;;;;;;19.20;9.07;;;1.40;99.90;;;;;;4975524;28;20604;-76
2021/01/27 04:03:05;;;;;;;20.83;9.63;;;1.30;99.90;;;;;;4980113;28;20053;-75
2021/01/27 04:05:32;;;;;;;18.37;9.13;;;1.40;99.90;;;;;;4984778;28;20416;-75
2021/01/27 04:07:59;;;;;;;22.07;10.37;;;1.30;99.90;;;;;;4985644;28;20177;-75
2021/01/27 04:10:26;;;;;;;19.53;10.03;;;1.10;99.90;;;;;;4985171;28;20061;-75
2021/01/27 04:12:52;;;;;;;22.77;10.73;;;1.10;99.90;;;;;;4983615;28;20050;-75
2021/01/27 04:15:19;;;;;;;23.80;10.97;;;1.00;99.90;;;;;;4985231;28;20795;-75
2021/01/27 04:17:45;;;;;;;19.33;9.10;;;0.90;99.90;;;;;;4985351;28;20046;-75
2021/01/27 04:20:13;;;;;;;23.87;10.90;;;1.00;99.90;;;;;;4984574;28;20081;-76
2021/01/27 04:22:42;;;;;;;17.00;9.30;;;1.10;99.90;;;;;;4984132;28;20054;-75
2021/01/27 04:25:11;;;;;;;20.70;11.13;;;0.90;99.90;;;;;;4984778;28;20058;-75
2021/01/27 04:27:38;;;;;;;23.70;9.63;;;0.90;99.90;;;;;;4985358;28;20046;-75
2021/01/27 04:30:06;;;;;;;20.10;9.87;;;1.00;99.90;;;;;;5143457;22;20047;-71
2021/01/27 04:32:32;;;;;;;21.70;10.90;;;1.00;99.90;;;;;;4981035;28;20043;-71
2021/01/27 04:35:02;;;;;;;22.13;10.33;;;0.90;99.90;;;;;;4963114;28;20054;-71
2021/01/27 04:37:29;;;;;;;19.30;10.10;;;0.90;99.90;;;;;;4958421;28;20926;-71
2021/01/27 04:39:55;;;;;;;21.23;10.50;;;0.70;99.90;;;;;;4957566;28;20102;-71
2021/01/27 04:42:27;;;;;;;21.27;10.27;;;0.70;99.90;;;;;;4957256;28;20058;-71
2021/01/27 04:44:56;;;;;;;23.77;10.80;;;0.70;99.90;;;;;;4960823;28;20047;-71
2021/01/27 04:47:28;;;;;;;21.50;10.93;;;0.60;99.90;;;;;;4956436;28;20051;-71
2021/01/27 04:49:59;;;;;;;21.93;12.00;;;0.60;99.90;;;;;;4956369;28;20498;-71
2021/01/27 04:52:55;;;;;;;19.63;10.33;;;0.60;99.90;;;;;;4957621;28;20055;-71
2021/01/27 04:55:46;;;;;;;20.93;10.20;;;0.60;99.90;;;;;;4959538;28;20044;-71
2021/01/27 04:58:21;;;;;;;19.27;10.20;;;0.60;99.90;;;;;;4959783;28;20437;-71
2021/01/27 05:01:02;;;;;;;22.33;11.13;;;0.60;99.90;;;;;;4960296;28;20051;-72
2021/01/27 05:03:59;;;;;;;18.17;9.07;;;0.50;99.90;;;;;;4957111;28;20486;-71
2021/01/27 05:06:30;;;;;;;22.43;11.20;;;0.40;99.90;;;;;;4958114;28;20038;-72
2021/01/27 05:09:05;;;;;;;25.10;11.93;;;0.40;99.90;;;;;;4959409;28;20047;-72
2021/01/27 05:11:31;;;;;;;24.07;11.60;;;0.50;99.90;;;;;;4960794;28;20058;-71
2021/01/27 05:14:02;;;;;;;26.63;12.33;;;0.40;99.90;;;;;;4959744;28;20676;-71
2021/01/27 05:16:30;;;;;;;22.63;11.63;;;0.40;99.90;;;;;;4960618;28;20047;-72
2021/01/27 05:18:59;;;;;;;24.43;12.47;;;0.40;99.90;;;;;;4962344;28;20489;-71
2021/01/27 05:21:29;;;;;;;28.67;13.10;;;0.40;99.90;;;;;;4961090;28;20082;-71
2021/01/27 05:23:56;;;;;;;26.37;12.07;;;0.30;99.90;;;;;;4959587;28;20078;-71
2021/01/27 05:26:34;;;;;;;26.97;12.67;;;0.30;99.90;;;;;;4963684;28;20047;-69
2021/01/27 05:29:04;;;;;;;24.40;11.57;;;0.30;99.90;;;;;;4970644;28;20050;-69
2021/01/27 05:31:57;;;;;;;23.87;11.97;;;0.30;99.90;;;;;;4969719;28;20091;-69
2021/01/27 05:34:28;;;;;;;27.97;12.20;;;0.20;99.90;;;;;;4961569;28;20121;-69
2021/01/27 05:36:55;;;;;;;26.03;12.63;;;0.10;99.90;;;;;;4959789;28;20062;-68
2021/01/27 05:39:28;;;;;;;25.43;13.03;;;0.10;99.90;;;;;;4961934;28;20051;-68
2021/01/27 05:42:19;;;;;;;29.53;12.50;;;0.00;99.90;;;;;;4962076;28;20109;-69
2021/01/27 05:44:47;;;;;;;25.33;12.53;;;-0.10;99.90;;;;;;4964418;28;20464;-68
2021/01/27 05:47:37;;;;;;;27.03;12.23;;;0.00;99.90;;;;;;4962423;28;20075;-68
2021/01/27 05:50:21;;;;;;;29.03;12.37;;;0.00;99.90;;;;;;4957796;28;20066;-69
2021/01/27 05:52:48;;;;;;;23.70;12.27;;;-0.10;99.90;;;;;;4963642;28;20492;-68
2021/01/27 05:55:16;;;;;;;26.60;12.83;;;0.00;99.90;;;;;;4960330;28;20379;-68
2021/01/27 05:57:42;;;;;;;29.17;13.60;;;-0.10;99.90;;;;;;4961417;28;20047;-68
2021/01/27 06:00:25;;;;;;;30.07;13.63;;;-0.20;99.90;;;;;;4966695;28;20383;-69
2021/01/27 06:02:53;;;;;;;30.17;12.97;;;-0.20;99.90;;;;;;4959775;28;20402;-68
2021/01/27 06:05:33;;;;;;;29.47;13.13;;;-0.20;99.90;;;;;;4959876;28;20208;-68
2021/01/27 06:08:12;;;;;;;28.57;14.67;;;-0.20;99.90;;;;;;4959792;28;20043;-68
2021/01/27 06:10:39;;;;;;;28.30;13.33;;;-0.20;99.90;;;;;;4960383;28;20048;-67
2021/01/27 06:13:16;;;;;;;29.57;13.17;;;-0.10;99.90;;;;;;4959925;28;20452;-66
2021/01/27 06:15:44;;;;;;;29.40;12.77;;;-0.10;99.90;;;;;;4961629;28;20047;-66
2021/01/27 06:18:24;;;;;;;26.20;13.73;;;-0.20;99.90;;;;;;4961222;28;20059;-66
2021/01/27 06:21:10;;;;;;;32.23;13.40;;;-0.10;99.90;;;;;;4963703;28;20081;-67
2021/01/27 06:24:02;;;;;;;26.73;13.00;;;-0.20;99.90;;;;;;4959438;28;20047;-67
2021/01/27 06:27:01;;;;;;;28.50;12.63;;;-0.10;99.90;;;;;;4961868;28;20058;-66
2021/01/27 06:30:02;;;;;;;30.27;14.10;;;-0.20;99.90;;;;;;4965953;28;20062;-66
2021/01/27 06:32:44;;;;;;;32.50;14.47;;;-0.20;99.90;;;;;;4960465;28;20058;-67
2021/01/27 06:35:31;;;;;;;30.07;14.37;;;-0.20;99.90;;;;;;4962907;28;20063;-67
2021/01/27 06:38:28;;;;;;;30.98;14.85;;;-0.20;99.90;;;;;;4961531;28;20051;-66
2021/01/27 06:41:07;;;;;;;35.25;14.13;;;-0.30;99.90;;;;;;4960891;28;20044;-66
2021/01/27 06:43:47;;;;;;;33.63;13.40;;;-0.30;99.90;;;;;;4960612;28;20047;-69
2021/01/27 06:46:52;;;;;;;32.57;15.77;;;-0.30;99.90;;;;;;4960482;28;20051;-69
2021/01/27 06:49:51;;;;;;;33.10;14.23;;;-0.10;99.90;;;;;;4942048;28;20153;-69
2021/01/27 06:53:03;;;;;;;30.90;13.63;;;-0.10;99.90;;;;;;4966944;28;20061;-69
2021/01/27 06:55:40;;;;;;;32.20;14.47;;;-0.10;99.90;;;;;;4967685;28;20062;-68
2021/01/27 06:58:38;;;;;;;32.85;13.80;;;0.00;99.90;;;;;;4968131;28;20077;-68
2021/01/27 07:01:15;;;;;;;;;;;0.00;99.90;;;;;;4964045;28;20051;-68
2021/01/27 07:04:26;;;;;;;34.80;16.55;;;-0.10;99.90;;;;;;4966489;28;19953;-68
2021/01/27 07:07:25;;;;;;;32.47;14.60;;;-0.20;99.90;;;;;;4942711;28;20058;-69
2021/01/27 07:10:25;;;;;;;30.17;14.20;;;-0.20;99.90;;;;;;4969625;28;20057;-70
2021/01/27 07:12:58;;;;;;;32.07;14.43;;;-0.30;99.90;;;;;;4944404;28;20401;-68
2021/01/27 07:15:44;;;;;;;34.00;14.30;;;-0.20;99.90;;;;;;4969557;28;20424;-68
2021/01/27 07:18:29;;;;;;;32.77;14.17;;;-0.20;99.90;;;;;;4969834;28;20058;-68
2021/01/27 07:20:59;;;;;;;27.97;14.50;;;0.00;99.90;;;;;;4969947;28;20050;-68
2021/01/27 07:23:34;;;;;;;33.00;15.07;;;0.10;99.90;;;;;;4968367;28;20532;-69
2021/01/27 07:26:08;;;;;;;32.47;14.87;;;0.20;99.90;;;;;;4954865;28;20500;-68
2021/01/27 07:28:45;;;;;;;30.33;14.10;;;0.20;99.90;;;;;;4963594;28;20055;-68
2021/01/27 07:31:15;;;;;;;;;;;0.20;99.90;;;;;;4965197;28;20046;-68
2021/01/27 07:33:49;;;;;;;30.47;14.70;;;0.10;99.90;;;;;;4957994;28;20455;-68
2021/01/27 07:36:41;;;;;;;34.67;15.60;;;0.20;99.90;;;;;;4960146;28;20043;-67
2021/01/27 07:39:15;;;;;;;38.70;15.80;;;0.20;99.90;;;;;;4948907;28;20109;-67
2021/01/27 07:41:58;;;;;;;32.53;14.93;;;0.30;99.90;;;;;;4958928;28;20134;-68
2021/01/27 07:44:25;;;;;;;33.27;15.27;;;0.30;99.90;;;;;;4963575;28;20058;-68
2021/01/27 07:46:59;;;;;;;31.63;15.07;;;0.30;99.90;;;;;;4962792;28;20497;-67
2021/01/27 07:49:37;;;;;;;30.07;13.67;;;0.40;99.90;;;;;;4948850;28;20055;-67
2021/01/27 07:52:13;;;;;;;32.47;14.87;;;0.40;99.90;;;;;;4963551;28;20342;-67
2021/01/27 07:54:42;;;;;;;28.93;13.63;;;0.40;99.90;;;;;;4955257;28;20055;-67
2021/01/27 07:57:27;;;;;;;30.20;14.00;;;0.50;99.90;;;;;;4967729;28;20047;-67
2021/01/27 08:00:02;;;;;;;27.90;13.17;;;0.60;99.90;;;;;;4968815;28;20113;-67
2021/01/27 08:02:32;;;;;;;28.23;14.23;;;0.70;99.90;;;;;;4970347;28;20507;-68
2021/01/27 08:05:04;;;;;;;20.80;11.27;;;0.80;99.90;;;;;;4982357;28;20556;-67
2021/01/27 08:07:33;;;;;;;31.30;12.30;;;0.80;99.90;;;;;;4974723;28;20042;-67
2021/01/27 08:10:08;;;;;;;23.60;12.83;;;0.80;99.90;;;;;;4976572;28;20078;-67
2021/01/27 08:12:40;;;;;;;24.20;12.57;;;0.90;99.90;;;;;;4984650;28;20050;-67
2021/01/27 08:15:11;;;;;;;23.77;13.10;;;0.90;99.90;;;;;;4985820;28;20073;-67
2021/01/27 08:18:01;;;;;;;26.03;12.03;;;1.10;99.90;;;;;;4971639;28;20571;-67
2021/01/27 08:20:31;;;;;;;24.30;11.87;;;1.20;99.90;;;;;;4969155;28;20054;-67
2021/01/27 08:22:59;;;;;;;24.10;12.20;;;1.30;99.90;;;;;;4967786;28;20054;-67
2021/01/27 08:25:49;;;;;;;22.73;11.67;;;1.30;99.90;;;;;;4968629;28;20055;-67
2021/01/27 08:28:45;;;;;;;22.40;11.97;;;1.40;99.90;;;;;;4968263;28;20047;-67
2021/01/27 08:31:24;;;;;;;19.60;10.47;;;1.50;99.90;;;;;;4967573;28;20054;-67
2021/01/27 08:33:58;;;;;;;21.73;12.03;;;1.60;99.90;;;;;;4966741;28;20516;-67
2021/01/27 08:37:02;;;;;;;24.63;12.40;;;1.60;99.90;;;;;;4968286;28;20050;-67
2021/01/27 08:39:30;;;;;;;22.07;11.70;;;1.70;99.90;;;;;;4965977;28;20236;-67
2021/01/27 08:42:00;;;;;;;22.27;11.73;;;1.70;99.90;;;;;;4968368;28;20071;-67
2021/01/27 08:44:34;;;;;;;22.73;11.90;;;1.70;99.90;;;;;;4967170;28;20047;-68
2021/01/27 08:47:17;;;;;;;27.00;12.17;;;1.60;99.90;;;;;;4971522;28;20098;-68
2021/01/27 08:49:48;;;;;;;24.93;12.30;;;1.90;99.90;;;;;;4971787;28;20051;-68
2021/01/27 08:52:42;;;;;;;24.70;12.30;;;1.80;99.90;;;;;;4971130;28;20062;-68
2021/01/27 08:55:36;;;;;;;18.93;11.43;;;1.80;99.90;;;;;;4926080;28;20053;-68
2021/01/27 08:58:23;;;;;;;22.73;12.53;;;1.80;99.90;;;;;;4971426;28;20073;-68
2021/01/27 09:00:52;;;;;;;24.40;12.07;;;1.80;99.90;;;;;;4970876;28;20083;-68
2021/01/27 09:03:59;;;;;;;26.73;12.53;;;1.80;99.90;;;;;;4967310;28;20054;-68
2021/01/27 09:06:33;;;;;;;23.13;12.30;;;1.80;99.90;;;;;;4970796;28;20391;-68
2021/01/27 09:09:22;;;;;;;22.33;11.60;;;1.90;99.90;;;;;;4971022;28;20093;-68
2021/01/27 09:11:56;;;;;;;22.73;12.67;;;1.90;99.90;;;;;;4968612;28;20053;-68
2021/01/27 09:14:23;;;;;;;29.97;13.23;;;1.90;99.90;;;;;;4970390;28;20050;-68
2021/01/27 09:16:51;;;;;;;28.70;12.40;;;1.90;99.90;;;;;;4971637;28;20114;-69
2021/01/27 09:19:20;;;;;;;24.03;12.40;;;1.90;99.90;;;;;;4971163;28;20058;-69
2021/01/27 09:22:06;;;;;;;23.83;11.27;;;2.10;99.90;;;;;;4971553;28;20083;-69
2021/01/27 09:24:38;;;;;;;24.30;13.33;;;2.20;99.90;;;;;;4970144;28;20050;-69
2021/01/27 09:27:18;;;;;;;21.50;11.90;;;2.40;99.90;;;;;;4972011;28;20059;-69
2021/01/27 09:29:44;;;;;;;20.27;10.67;;;2.40;99.90;;;;;;4961426;28;20051;-69
2021/01/27 09:32:15;;;;;;;22.40;11.83;;;2.40;99.90;;;;;;4966061;28;20047;-69
2021/01/27 09:34:42;;;;;;;24.23;11.60;;;2.50;99.90;;;;;;4964454;28;20062;-69
2021/01/27 09:37:14;;;;;;;22.93;12.60;;;2.60;99.90;;;;;;4965228;28;20051;-69
2021/01/27 09:39:47;;;;;;;25.37;10.10;;;2.90;99.90;;;;;;4951207;28;20651;-69
2021/01/27 09:42:19;;;;;;;16.83;8.97;;;3.20;99.90;;;;;;4954155;28;20153;-68
2021/01/27 09:44:49;;;;;;;20.77;9.50;;;3.10;99.90;;;;;;4960600;28;20051;-68
2021/01/27 09:47:17;;;;;;;21.37;10.57;;;2.70;99.90;;;;;;4961866;28;20043;-68
2021/01/27 09:49:48;;;;;;;16.97;10.20;;;2.50;99.90;;;;;;4964894;28;20524;-68
2021/01/27 09:52:16;;;;;;;20.73;9.07;;;2.60;99.90;;;;;;4961523;28;20529;-70
2021/01/27 09:54:46;;;;;;;18.77;10.10;;;3.00;99.90;;;;;;4966066;28;20051;-68
2021/01/27 09:57:15;;;;;;;19.50;8.83;;;3.30;99.90;;;;;;4960802;28;20047;-68
2021/01/27 09:59:47;;;;;;;18.73;9.77;;;3.10;99.90;;;;;;4970716;28;20102;-68
2021/01/27 10:02:14;;;;;;;16.90;9.27;;;3.00;99.90;;;;;;4964925;28;20086;-68
2021/01/27 10:04:41;;;;;;;19.73;10.47;;;3.10;99.90;;;;;;4964742;28;20503;-68
2021/01/27 10:07:20;;;;;;;17.90;9.53;;;2.80;99.90;;;;;;4962154;28;20055;-69
2021/01/27 10:09:50;;;;;;;19.50;8.80;;;2.70;99.90;;;;;;4962831;28;20105;-68
2021/01/27 10:12:27;;;;;;;14.73;8.53;;;2.90;99.90;;;;;;4959851;28;20066;-68
2021/01/27 10:15:08;;;;;;;18.65;9.45;;;3.10;99.90;;;;;;4959695;28;20059;-68
2021/01/27 10:17:35;;;;;;;17.50;9.60;;;2.80;99.90;;;;;;4971023;28;20070;-68
2021/01/27 10:20:07;;;;;;;15.23;8.13;;;2.90;99.90;;;;;;4968960;28;20054;-68
2021/01/27 10:22:38;;;;;;;17.13;8.50;;;2.70;99.90;;;;;;4964467;28;20795;-68
2021/01/27 10:25:27;;;;;;;15.60;8.83;;;2.60;99.90;;;;;;4957076;28;20130;-69
2021/01/27 10:28:25;;;;;;;20.07;9.80;;;2.80;99.90;;;;;;4964188;28;20703;-69
2021/01/27 10:30:55;;;;;;;18.15;8.13;;;3.00;99.90;;;;;;4925386;29;20048;-69
2021/01/27 10:33:42;;;;;;;19.37;8.73;;;3.00;99.90;;;;;;4956115;28;20106;-69
2021/01/27 10:36:30;;;;;;;16.48;8.27;;;3.10;99.90;;;;;;4965782;28;20062;-70
2021/01/27 10:39:29;;;;;;;17.43;8.30;;;3.10;99.90;;;;;;4966669;28;20519;-70
2021/01/27 10:42:22;;;;;;;16.33;8.37;;;3.20;99.90;;;;;;4964204;28;20137;-69
2021/01/27 10:45:17;;;;;;;14.03;7.13;;;3.20;99.90;;;;;;4960740;28;20496;-69
2021/01/27 10:47:45;;;;;;;17.93;8.40;;;2.80;99.90;;;;;;4970216;28;20437;-69
2021/01/27 10:50:12;;;;;;;16.80;8.43;;;2.90;99.90;;;;;;4967163;28;20178;-69
2021/01/27 10:52:39;;;;;;;16.80;7.80;;;3.00;99.90;;;;;;4963955;28;20101;-69
2021/01/27 10:55:10;;;;;;;15.30;7.93;;;3.00;99.90;;;;;;4970916;28;20055;-69
2021/01/27 10:57:37;;;;;;;18.23;8.10;;;3.10;99.90;;;;;;4958835;28;20055;-70
2021/01/27 11:00:06;;;;;;;18.67;8.83;;;3.50;99.90;;;;;;4964008;28;20050;-69
2021/01/27 11:02:32;;;;;;;12.97;7.57;;;3.30;99.90;;;;;;4963106;28;20054;-70
2021/01/27 11:04:59;;;;;;;16.30;8.20;;;3.10;99.90;;;;;;4958392;28;20082;-69
2021/01/27 11:07:26;;;;;;;16.13;7.93;;;2.90;99.90;;;;;;4967057;28;20402;-69
2021/01/27 11:09:53;;;;;;;17.60;8.60;;;2.80;99.90;;;;;;4967037;28;20059;-70
2021/01/27 11:12:20;;;;;;;15.97;8.07;;;2.80;99.90;;;;;;4957346;28;20051;-70
2021/01/27 11:14:46;;;;;;;16.73;8.00;;;2.80;99.90;;;;;;4962815;28;20133;-69
2021/01/27 11:17:13;;;;;;;15.37;7.87;;;2.80;99.90;;;;;;4954149;28;20089;-70
2021/01/27 11:19:40;;;;;;;13.97;7.70;;;2.90;99.90;;;;;;4964153;28;20051;-69
2021/01/27 11:22:07;;;;;;;16.77;7.53;;;2.70;99.90;;;;;;4965295;28;20058;-69
2021/01/27 11:24:33;;;;;;;16.20;7.77;;;2.70;99.90;;;;;;4961532;28;20051;-69
2021/01/27 11:27:01;;;;;;;15.80;8.27;;;2.80;99.90;;;;;;4967957;28;20046;-68
2021/01/27 11:29:28;;;;;;;16.03;8.40;;;2.80;99.90;;;;;;4970357;28;20109;-69
2021/01/27 11:31:54;;;;;;;16.80;8.77;;;2.80;99.90;;;;;;4970795;28;20440;-68
2021/01/27 11:34:20;;;;;;;16.17;8.27;;;3.00;99.90;;;;;;4960902;28;20043;-68
2021/01/27 11:36:47;;;;;;;18.80;8.27;;;2.90;99.90;;;;;;4960713;28;20040;-68
2021/01/27 11:39:13;;;;;;;14.67;8.30;;;3.00;99.90;;;;;;4958068;28;20527;-68
2021/01/27 11:41:40;;;;;;;17.53;8.17;;;3.00;99.90;;;;;;4969231;28;20071;-68
2021/01/27 11:44:09;;;;;;;12.10;6.60;;;2.90;99.90;;;;;;4963536;28;20047;-68
2021/01/27 11:46:35;;;;;;;16.27;7.63;;;2.80;99.90;;;;;;4949076;28;20058;-68
2021/01/27 11:49:03;;;;;;;12.87;6.60;;;3.00;99.90;;;;;;4953935;28;20409;-68
2021/01/27 11:51:29;;;;;;;13.20;6.10;;;3.00;99.90;;;;;;4968034;28;20069;-68
2021/01/27 11:53:55;;;;;;;13.63;6.90;;;2.90;99.90;;;;;;4962358;28;20515;-68
2021/01/27 11:56:22;;;;;;;13.67;7.23;;;2.90;99.90;;;;;;4968468;28;20055;-68
2021/01/27 11:58:48;;;;;;;14.93;6.37;;;2.90;99.90;;;;;;4961375;28;20118;-68
2021/01/27 12:01:16;;;;;;;12.23;6.60;;;3.10;99.90;;;;;;4963351;28;20062;-68
2021/01/27 12:03:42;;;;;;;24.90;6.67;;;3.20;99.90;;;;;;4962627;28;20393;-69
2021/01/27 12:06:09;;;;;;;12.50;6.77;;;3.10;99.90;;;;;;4962543;28;20066;-69
2021/01/27 12:08:36;;;;;;;15.63;7.60;;;3.00;99.90;;;;;;4961053;28;20051;-70
2021/01/27 12:11:02;;;;;;;17.17;7.23;;;2.90;99.90;;;;;;4953770;28;20058;-68
2021/01/27 12:13:29;;;;;;;19.03;7.53;;;2.80;99.90;;;;;;4972702;28;20070;-69
2021/01/27 12:15:55;;;;;;;14.17;7.60;;;2.70;99.90;;;;;;4979480;28;20055;-69
2021/01/27 12:18:23;;;;;;;15.13;7.00;;;2.70;99.90;;;;;;4980851;28;20078;-69
2021/01/27 12:20:50;;;;;;;13.67;6.33;;;2.60;99.90;;;;;;4971391;28;20047;-68
2021/01/27 12:23:16;;;;;;;15.77;7.23;;;2.60;99.90;;;;;;4965562;28;20058;-69
2021/01/27 12:25:44;;;;;;;14.73;6.87;;;2.50;99.90;;;;;;4962898;28;20051;-69
2021/01/27 12:28:11;;;;;;;12.50;7.10;;;2.60;99.90;;;;;;4951783;28;20058;-70
2021/01/27 12:30:38;;;;;;;13.27;6.10;;;2.60;99.90;;;;;;4960007;28;20313;-68
2021/01/27 12:33:04;;;;;;;14.30;7.37;;;2.70;99.90;;;;;;4965204;28;20102;-69
2021/01/27 12:35:32;;;;;;;15.97;7.00;;;2.80;99.90;;;;;;4966379;28;20059;-69
2021/01/27 12:37:59;;;;;;;13.03;6.70;;;2.80;99.90;;;;;;4964580;28;20149;-70
2021/01/27 12:40:26;;;;;;;18.50;8.87;;;2.80;99.90;;;;;;4959211;28;20047;-69
2021/01/27 12:42:53;;;;;;;13.83;6.73;;;2.80;99.90;;;;;;4958682;28;20046;-69
2021/01/27 12:45:22;;;;;;;15.10;7.27;;;2.60;99.90;;;;;;4966112;28;20089;-69
2021/01/27 12:47:49;;;;;;;13.50;7.30;;;2.50;99.90;;;;;;4965313;28;20047;-69
2021/01/27 12:50:16;;;;;;;16.03;6.97;;;2.60;99.90;;;;;;4963006;28;20046;-68
2021/01/27 12:52:44;;;;;;;16.17;7.37;;;2.60;99.90;;;;;;4949174;28;20047;-71
2021/01/27 12:55:13;;;;;;;13.27;7.33;;;2.60;99.90;;;;;;4960731;28;20047;-68
2021/01/27 12:57:41;;;;;;;17.13;8.00;;;2.60;99.90;;;;;;4960117;28;20062;-70
2021/01/27 13:00:10;;;;;;;14.87;6.80;;;2.50;99.90;;;;;;4958306;28;20047;-69
2021/01/27 13:05:58;;;;;;;17.43;8.30;;;2.60;99.90;;;;;;4947979;28;20134;-69
2021/01/27 13:08:26;;;;;;;11.13;5.83;;;2.60;99.90;;;;;;4961703;28;20054;-69
2021/01/27 13:10:53;;;;;;;11.63;6.13;;;2.60;99.90;;;;;;4965499;28;20047;-69
2021/01/27 13:13:19;;;;;;;15.07;6.27;;;2.60;99.90;;;;;;4964943;28;20055;-69
2021/01/27 13:15:46;;;;;;;14.17;6.57;;;2.50;99.90;;;;;;4965631;28;20043;-69